EFTP/TMP METAR and TAF weather

Enter ICAO airport designator
Station Type Date Time Source
EFTP METAR 2018/09/21 23:20 UTC NOAA

EFTP 212320Z AUTO 16010KT 9999 BKN047 19/12 Q0993


Station Type Date Time Source
EFTP Decoded METAR 2018/09/21 23:20 UTC NOAA

Tampere / Pirkkala, Finland (EFTP) 61-25N 023-35E 112M
Sep 21, 2018 - 07:20 PM EDT / 2018.09.21 2320 UTC
Wind: from the SSE (160 degrees) at 12 MPH (10 KT):0
Visibility: greater than 7 mile(s):0
Sky conditions: mostly cloudy
Temperature: 66 F (19 C)
Dew Point: 53 F (12 C)
Relative Humidity: 63%
Pressure (altimeter): 29.32 in. Hg (0993 hPa)
ob: EFTP 212320Z AUTO 16010KT 9999 BKN047 19/12 Q0993
cycle: 23

Station Type Date Time Source
EFTP TAF 2018/09/21 21:44 UTC NOAA

TAF EFTP 212036Z 2121/2221 16012KT CAVOK
TEMPO 2121/2203 SHRA SCT050CB
TEMPO 2203/2215 19016G30KT SCT030CB


Example: see airport list